createdAt,value
2018-11-13T06:21:52.755Z,98562.00
2018-11-13T06:34:36.947Z,98577.00
2018-11-13T06:37:27.372Z,98574.00
2018-11-13T06:40:20.329Z,98584.00
2018-11-13T06:43:08.775Z,98594.00
2018-11-13T06:45:47.392Z,98605.00
2018-11-13T06:49:12.234Z,98609.00
2018-11-13T06:52:12.762Z,98612.00
2018-11-13T06:55:25.526Z,98617.00
2018-11-13T06:58:18.289Z,98635.00
2018-11-13T07:01:29.582Z,98631.00
2018-11-13T07:04:31.251Z,98614.00
2018-11-13T07:25:22.257Z,98648.00
2018-11-13T07:28:23.176Z,98655.00
2018-11-13T08:10:23.568Z,98696.00
2018-11-13T08:24:55.487Z,98748.00
2018-11-13T08:31:02.760Z,98750.00
2018-11-13T08:35:03.420Z,98739.00
2018-11-13T08:58:51.297Z,98755.00
2018-11-13T09:14:41.924Z,98804.00
2018-11-13T09:17:32.829Z,98795.00
2018-11-13T09:20:26.031Z,98803.00
2018-11-13T09:32:53.015Z,98806.00
2018-11-13T09:38:36.568Z,98817.00
2018-11-13T09:41:13.138Z,98819.00
2018-11-13T09:43:49.282Z,98825.00
2018-11-13T09:46:49.424Z,98826.00
2018-11-13T09:49:55.233Z,98823.00
2018-11-13T09:52:56.024Z,98814.00
2018-11-13T10:17:33.753Z,98808.00
2018-11-13T10:32:52.319Z,98828.00
2018-11-13T10:35:59.563Z,98822.00
2018-11-13T10:38:45.507Z,98832.00
2018-11-13T10:41:28.294Z,98814.00
2018-11-13T11:16:47.207Z,98796.00
2018-11-13T11:22:37.024Z,98802.00
2018-11-13T11:25:43.896Z,98832.00
2018-11-13T11:28:19.764Z,98833.00
2018-11-13T11:31:03.341Z,98844.00
2018-11-13T11:33:42.772Z,98842.00
2018-11-13T11:36:14.869Z,98825.00
2018-11-13T11:38:51.437Z,98837.00
2018-11-13T11:41:36.229Z,98846.00
2018-11-13T11:44:15.008Z,98854.00
2018-11-13T11:47:03.403Z,98868.00
2018-11-13T11:49:49.075Z,98875.00
2018-11-13T12:00:35.691Z,98841.00
2018-11-13T12:03:09.368Z,98843.00
2018-11-13T12:09:40.733Z,98852.00
2018-11-13T12:12:32.873Z,98862.00
2018-11-13T12:19:24.251Z,98872.00
2018-11-13T12:25:39.233Z,98853.00
2018-11-13T12:28:12.974Z,98850.00
2018-11-13T12:30:47.199Z,98877.00
2018-11-13T12:33:32.175Z,98893.00
2018-11-13T12:36:05.824Z,98885.00
2018-11-13T12:38:40.791Z,98879.00
2018-11-13T12:41:15.916Z,98884.00
2018-11-13T12:43:48.659Z,98860.00
2018-11-13T12:46:25.264Z,98883.00
2018-11-13T12:49:07.364Z,98882.00
2018-11-13T12:52:47.912Z,98890.00
2018-11-13T12:55:22.193Z,98898.00
2018-11-13T12:58:05.590Z,98913.00
2018-11-13T13:00:39.464Z,98916.00
2018-11-13T13:03:14.604Z,98909.00
2018-11-13T13:05:48.547Z,98911.00
2018-11-13T13:08:23.704Z,98915.00
2018-11-13T13:10:56.398Z,98910.00
2018-11-13T13:13:32.886Z,98903.00
2018-11-13T13:16:05.847Z,98908.00
2018-11-13T13:18:41.761Z,98904.00
2018-11-13T13:21:15.443Z,98914.00
2018-11-13T13:23:54.487Z,98916.00
2018-11-13T13:26:32.782Z,98922.00
2018-11-13T13:29:05.504Z,98924.00
2018-11-13T13:31:44.724Z,98928.00
2018-11-13T13:34:22.712Z,98931.00
2018-11-13T13:36:56.683Z,98933.00
2018-11-13T13:39:31.659Z,98930.00
2018-11-13T13:42:06.694Z,98933.00
2018-11-13T13:44:42.890Z,98933.00
2018-11-13T13:47:17.815Z,98941.00
2018-11-13T13:49:54.567Z,98946.00
2018-11-13T13:52:34.004Z,98947.00
2018-11-13T13:55:13.678Z,98951.00
2018-11-13T13:57:45.918Z,98960.00
2018-11-13T14:00:20.042Z,98964.00
2018-11-13T14:02:54.801Z,98961.00
2018-11-13T14:05:31.181Z,98956.00
2018-11-13T14:08:09.404Z,98961.00
2018-11-13T14:10:46.964Z,98964.00
2018-11-13T14:13:27.604Z,98960.00
2018-11-13T14:15:59.877Z,98972.00
2018-11-13T14:18:47.914Z,98973.00
2018-11-13T14:21:28.276Z,98985.00
2018-11-13T14:24:14.064Z,98988.00
2018-11-13T14:26:52.118Z,98994.00
2018-11-13T14:29:42.696Z,98995.00
2018-11-13T14:32:27.127Z,99001.00
2018-11-13T14:35:01.345Z,99002.00
2018-11-13T14:37:37.304Z,98998.00
2018-11-13T14:40:24.598Z,98999.00
2018-11-13T14:42:56.997Z,99004.00
2018-11-13T14:45:44.325Z,99010.00
2018-11-13T14:48:36.460Z,99013.00
2018-11-13T14:51:09.652Z,99013.00
2018-11-13T14:53:52.265Z,99010.00
2018-11-13T14:56:28.961Z,99010.00
2018-11-13T14:59:10.944Z,99007.00
2018-11-13T15:01:53.144Z,99016.00
2018-11-13T15:04:47.553Z,99017.00
2018-11-13T15:07:23.285Z,99021.00
2018-11-13T15:10:00.891Z,99041.00
2018-11-13T15:12:35.321Z,99046.00
2018-11-13T15:15:25.769Z,99047.00
2018-11-13T15:17:58.042Z,99054.00
2018-11-13T15:23:43.875Z,99056.00
2018-11-13T15:36:41.701Z,99079.00
2018-11-13T15:39:24.661Z,99081.00
2018-11-13T15:42:30.298Z,99084.00
2018-11-13T15:50:00.052Z,99097.00
2018-11-13T15:52:53.205Z,99105.00
2018-11-13T16:21:19.813Z,99103.00
2018-11-13T16:49:49.831Z,99151.00
2018-11-13T17:58:18.388Z,99204.00
2018-11-13T18:00:50.607Z,99202.00
2018-11-13T18:03:34.092Z,99202.00
2018-11-13T18:06:09.879Z,99205.00
2018-11-13T18:08:43.444Z,99205.00
2018-11-13T18:13:58.493Z,99214.00
2018-11-13T18:16:40.175Z,99219.00
2018-11-13T18:19:12.926Z,99215.00
2018-11-13T18:21:44.947Z,99211.00
2018-11-13T18:24:18.629Z,99214.00
2018-11-13T18:26:57.503Z,99215.00
2018-11-13T18:29:29.781Z,99214.00
2018-11-13T18:32:03.271Z,99218.00
2018-11-13T18:34:35.977Z,99219.00
2018-11-13T18:37:08.897Z,99220.00
2018-11-13T18:39:40.324Z,99225.00
2018-11-13T18:42:11.823Z,99228.00
2018-11-13T18:44:48.034Z,99230.00
2018-11-13T18:47:20.241Z,99234.00
2018-11-13T18:49:51.682Z,99235.00
2018-11-13T18:52:23.016Z,99236.00
2018-11-13T18:54:57.125Z,99242.00
2018-11-13T18:57:29.512Z,99250.00
2018-11-13T19:00:01.197Z,99251.00
2018-11-13T19:02:33.752Z,99257.00
2018-11-13T19:05:06.077Z,99260.00
2018-11-13T19:07:39.179Z,99259.00
2018-11-13T19:10:52.371Z,99261.00
2018-11-13T19:13:28.119Z,99255.00
2018-11-13T19:20:54.510Z,99268.00
2018-11-13T19:23:30.340Z,99267.00
2018-11-13T19:26:10.930Z,99272.00
2018-11-13T19:34:55.747Z,99278.00
2018-11-13T19:37:28.046Z,99275.00
2018-11-13T19:40:01.878Z,99276.00
2018-11-13T19:42:33.910Z,99283.00
2018-11-13T19:45:06.959Z,99284.00
2018-11-13T19:47:39.662Z,99283.00
2018-11-13T19:50:14.741Z,99280.00
2018-11-13T19:52:47.224Z,99285.00
2018-11-13T19:55:20.971Z,99284.00
2018-11-13T19:57:53.517Z,99288.00
2018-11-13T20:00:34.797Z,99295.00
2018-11-13T20:03:08.690Z,99292.00
2018-11-13T20:05:41.045Z,99290.00
2018-11-13T20:08:13.385Z,99291.00
2018-11-13T20:10:45.720Z,99280.00
2018-11-13T20:13:17.737Z,99289.00
2018-11-13T20:15:49.472Z,99290.00
2018-11-13T20:18:22.331Z,99299.00
2018-11-13T20:20:55.412Z,99310.00
2018-11-13T20:23:28.322Z,99311.00
2018-11-13T20:26:01.083Z,99314.00
2018-11-13T20:28:34.017Z,99312.00
2018-11-13T20:31:06.363Z,99317.00
2018-11-13T20:33:38.811Z,99319.00
2018-11-13T20:36:10.821Z,99317.00
2018-11-13T20:38:43.324Z,99322.00
2018-11-13T20:41:16.313Z,99318.00
2018-11-13T20:43:48.987Z,99325.00
2018-11-13T20:46:22.070Z,99326.00
2018-11-13T20:48:56.241Z,99334.00
2018-11-13T20:51:28.215Z,99336.00
2018-11-13T21:18:18.451Z,99339.00
2018-11-13T21:21:10.051Z,99349.00
2018-11-13T21:23:42.652Z,99346.00
2018-11-13T21:26:15.265Z,99343.00
2018-11-13T21:28:47.293Z,99340.00
2018-11-13T21:31:18.994Z,99332.00
2018-11-13T21:33:52.506Z,99330.00
2018-11-13T21:36:24.292Z,99327.00
2018-11-13T21:38:56.535Z,99332.00
2018-11-13T21:41:28.230Z,99334.00
2018-11-13T21:44:00.192Z,99339.00
2018-11-13T21:46:32.981Z,99336.00
2018-11-13T21:49:05.149Z,99345.00
2018-11-13T21:51:38.409Z,99346.00
2018-11-13T21:54:10.007Z,99342.00
2018-11-13T21:56:41.649Z,99339.00
2018-11-13T21:59:13.510Z,99338.00
2018-11-13T22:01:45.216Z,99345.00
2018-11-13T22:04:19.114Z,99342.00
2018-11-13T22:06:53.910Z,99350.00
2018-11-13T22:09:26.904Z,99356.00
2018-11-13T22:11:59.779Z,99362.00
2018-11-13T22:14:31.617Z,99365.00
2018-11-13T22:17:03.878Z,99367.00
2018-11-13T22:19:35.911Z,99364.00
2018-11-13T22:22:08.996Z,99369.00
2018-11-13T22:24:41.141Z,99361.00
2018-11-13T22:27:13.268Z,99365.00
2018-11-13T22:29:44.797Z,99359.00
2018-11-13T22:32:17.345Z,99359.00
2018-11-13T22:34:49.600Z,99358.00
2018-11-13T22:37:21.685Z,99362.00
2018-11-13T22:39:54.974Z,99364.00
2018-11-13T22:42:27.695Z,99365.00
2018-11-13T22:45:00.775Z,99362.00
2018-11-13T22:47:35.185Z,99361.00
2018-11-13T22:50:10.266Z,99362.00
2018-11-13T22:52:45.252Z,99354.00
2018-11-13T22:55:17.379Z,99360.00
2018-11-13T22:57:52.826Z,99357.00
2018-11-13T23:00:46.944Z,99363.00
